createdAt,value
2022-09-23T00:01:30.625Z,83.86
2022-09-23T00:04:00.238Z,83.79
2022-09-23T00:06:28.324Z,83.73
2022-09-23T00:08:56.264Z,83.88
2022-09-23T00:11:26.476Z,83.78
2022-09-23T00:13:57.864Z,83.99
2022-09-23T00:16:29.120Z,83.86
2022-09-23T00:18:57.111Z,83.59
2022-09-23T00:21:25.331Z,83.39
2022-09-23T00:23:53.357Z,83.45
2022-09-23T00:26:22.652Z,83.43
2022-09-23T00:28:51.456Z,83.41
2022-09-23T00:31:23.255Z,83.43
2022-09-23T00:33:54.834Z,83.48
2022-09-23T00:36:23.351Z,83.28
2022-09-23T00:38:51.840Z,83.37
2022-09-23T00:41:19.871Z,83.33
2022-09-23T00:43:52.874Z,83.31
2022-09-23T00:46:40.959Z,83.49
2022-09-23T00:49:28.317Z,83.59
2022-09-23T00:52:02.951Z,83.86
2022-09-23T00:54:31.023Z,84.01
2022-09-23T00:57:00.930Z,84.36
2022-09-23T00:59:29.241Z,84.26
2022-09-23T01:01:58.948Z,84.36
2022-09-23T01:04:28.741Z,84.28
2022-09-23T01:06:56.589Z,84.36
2022-09-23T01:09:25.316Z,84.33
2022-09-23T01:12:26.942Z,84.19
2022-09-23T01:15:17.660Z,84.12
2022-09-23T01:18:21.868Z,83.90
2022-09-23T01:21:16.633Z,83.82
2022-09-23T01:24:09.364Z,83.83
2022-09-23T01:26:56.758Z,83.98
2022-09-23T01:30:01.582Z,84.16
2022-09-23T01:32:46.306Z,83.96
2022-09-23T01:35:35.317Z,83.92
2022-09-23T01:38:16.346Z,84.21
2022-09-23T01:40:59.577Z,84.37
2022-09-23T01:43:56.357Z,84.30
2022-09-23T01:46:31.044Z,84.91
2022-09-23T01:49:19.225Z,84.79
2022-09-23T01:51:53.443Z,84.66
2022-09-23T01:54:34.220Z,84.82
2022-09-23T01:57:22.787Z,84.92
2022-09-23T01:59:57.064Z,84.83
2022-09-23T02:02:35.109Z,84.89
2022-09-23T02:05:11.207Z,84.84
2022-09-23T02:07:45.375Z,84.86
2022-09-23T02:10:20.504Z,84.64
2022-09-23T02:12:52.429Z,84.87
2022-09-23T02:15:25.041Z,84.75
2022-09-23T02:17:58.855Z,84.57
2022-09-23T02:20:30.390Z,84.52
2022-09-23T02:23:07.633Z,84.41
2022-09-23T02:25:47.792Z,84.56
2022-09-23T02:28:25.231Z,84.46
2022-09-23T02:31:07.839Z,84.39
2022-09-23T02:33:46.427Z,84.23
2022-09-23T02:36:26.117Z,84.10
2022-09-23T02:39:00.698Z,83.92
2022-09-23T02:42:01.685Z,84.06
2022-09-23T02:44:31.076Z,83.77
2022-09-23T02:46:59.401Z,83.81
2022-09-23T02:49:29.429Z,83.70
2022-09-23T02:52:04.664Z,83.58
2022-09-23T02:54:33.993Z,83.47
2022-09-23T02:57:05.900Z,83.40
2022-09-23T02:59:35.914Z,83.47
2022-09-23T03:02:27.578Z,83.43
2022-09-23T03:05:23.901Z,83.25
2022-09-23T03:08:29.998Z,83.28
2022-09-23T03:11:08.585Z,83.51
2022-09-23T03:14:17.464Z,83.42
2022-09-23T03:17:00.435Z,83.43
2022-09-23T03:19:45.675Z,83.11
2022-09-23T03:22:35.154Z,83.31
2022-09-23T03:25:09.367Z,83.16
2022-09-23T03:27:39.084Z,83.16
2022-09-23T03:30:08.625Z,83.17
2022-09-23T03:32:38.662Z,83.15
2022-09-23T03:35:07.333Z,82.97
2022-09-23T03:37:53.407Z,82.87
2022-09-23T03:40:30.358Z,82.84
2022-09-23T03:43:01.498Z,82.78
2022-09-23T03:45:33.104Z,82.75
2022-09-23T03:48:01.801Z,82.56
2022-09-23T03:50:32.060Z,82.46
2022-09-23T03:53:00.070Z,82.46
2022-09-23T03:55:28.062Z,82.53
2022-09-23T03:57:56.701Z,82.68
2022-09-23T04:00:24.537Z,82.83
2022-09-23T04:02:52.528Z,82.64
2022-09-23T04:05:20.431Z,82.39
2022-09-23T04:07:49.178Z,82.41
2022-09-23T04:10:17.165Z,82.61
2022-09-23T04:12:45.077Z,82.75
2022-09-23T04:15:13.089Z,82.69
2022-09-23T04:17:41.893Z,82.82
2022-09-23T04:20:10.798Z,82.81
2022-09-23T04:22:38.666Z,82.72
2022-09-23T04:25:07.653Z,82.90
2022-09-23T04:27:37.937Z,82.84
2022-09-23T04:30:07.009Z,83.00
2022-09-23T04:32:36.068Z,82.76
2022-09-23T04:35:04.837Z,82.86
2022-09-23T04:37:32.981Z,82.81
2022-09-23T04:40:01.258Z,82.75
2022-09-23T04:42:30.665Z,82.56
2022-09-23T04:45:02.646Z,82.53
2022-09-23T04:48:14.007Z,82.42
2022-09-23T04:51:28.304Z,82.38
2022-09-23T04:54:41.332Z,82.14
2022-09-23T04:57:44.973Z,82.47
2022-09-23T05:00:43.073Z,82.59
2022-09-23T05:03:43.201Z,82.34
2022-09-23T05:07:12.658Z,82.31
2022-09-23T05:10:56.073Z,82.34
2022-09-23T05:14:25.970Z,82.19
2022-09-23T05:17:28.895Z,82.44
2022-09-23T05:20:33.850Z,82.72
2022-09-23T05:26:28.893Z,82.45
2022-09-23T05:29:36.936Z,82.51
2022-09-23T05:32:46.174Z,82.50
2022-09-23T05:36:26.140Z,82.53
2022-09-23T05:39:15.255Z,82.27
2022-09-23T05:42:07.039Z,81.92
2022-09-23T05:45:15.532Z,81.88
2022-09-23T05:47:53.515Z,81.50
2022-09-23T05:51:02.307Z,81.11
2022-09-23T05:54:07.339Z,81.74
2022-09-23T05:57:39.916Z,81.77
2022-09-23T06:00:45.876Z,81.21
2022-09-23T06:03:55.895Z,80.69
2022-09-23T06:07:16.577Z,80.50
2022-09-23T06:10:28.943Z,80.20
2022-09-23T06:13:38.219Z,80.42
2022-09-23T06:16:39.069Z,80.34
2022-09-23T06:19:48.880Z,79.77
2022-09-23T06:22:57.916Z,79.41
2022-09-23T06:26:22.591Z,79.17
2022-09-23T06:32:52.141Z,78.81
2022-09-23T06:37:04.132Z,78.45
2022-09-23T06:39:52.949Z,78.37
2022-09-23T06:42:21.020Z,78.42
2022-09-23T06:44:49.713Z,78.35
2022-09-23T06:47:20.407Z,77.67
2022-09-23T06:49:54.013Z,77.75
2022-09-23T06:52:35.745Z,77.24
2022-09-23T06:55:05.339Z,77.25
2022-09-23T06:57:38.940Z,77.08
2022-09-23T07:20:40.031Z,73.19
2022-09-23T07:23:14.774Z,71.45
2022-09-23T07:26:11.007Z,72.31
2022-09-23T07:33:32.193Z,71.89
2022-09-23T07:36:43.950Z,71.92
2022-09-23T07:43:28.154Z,71.13
2022-09-23T07:47:15.606Z,69.52
2022-09-23T07:50:28.121Z,70.72
2022-09-23T07:53:48.354Z,70.62
2022-09-23T07:56:55.644Z,69.60
2022-09-23T07:59:29.402Z,67.82
2022-09-23T08:02:28.225Z,68.31
2022-09-23T08:05:20.708Z,67.99
2022-09-23T08:08:32.692Z,68.44
2022-09-23T08:12:16.297Z,66.05
2022-09-23T08:15:24.246Z,64.44
2022-09-23T08:18:19.784Z,64.83
2022-09-23T08:20:53.380Z,65.63
2022-09-23T08:24:07.855Z,65.80
2022-09-23T08:26:37.993Z,64.73
2022-09-23T08:29:19.941Z,63.74
2022-09-23T08:31:47.683Z,63.06
2022-09-23T08:34:17.811Z,63.57
2022-09-23T08:36:51.704Z,64.10
2022-09-23T08:39:22.996Z,62.02
2022-09-23T08:42:26.143Z,60.88
2022-09-23T08:45:22.349Z,59.71
2022-09-23T08:48:41.888Z,60.33
2022-09-23T08:51:51.674Z,59.20
2022-09-23T08:54:36.243Z,59.45
2022-09-23T08:57:41.802Z,59.89
2022-09-23T09:00:35.322Z,58.07
2022-09-23T09:07:47.028Z,58.64
2022-09-23T09:11:00.535Z,59.77
2022-09-23T09:17:57.910Z,57.43
2022-09-23T09:18:27.852Z,56.72
2022-09-23T09:21:16.786Z,55.32
2022-09-23T09:24:16.727Z,56.54
2022-09-23T09:27:20.535Z,56.11
2022-09-23T09:29:54.988Z,53.83
2022-09-23T09:32:58.146Z,54.85
2022-09-23T09:36:26.007Z,55.36
2022-09-23T09:38:59.533Z,56.21
2022-09-23T09:43:04.709Z,55.47
2022-09-23T09:49:23.015Z,53.83
2022-09-23T09:52:34.322Z,54.21
2022-09-23T09:55:51.301Z,51.95
2022-09-23T09:58:20.780Z,52.04
2022-09-23T10:00:52.171Z,52.59
2022-09-23T10:03:40.894Z,53.42
2022-09-23T10:06:41.067Z,54.24
2022-09-23T10:09:18.819Z,53.03
2022-09-23T10:12:20.309Z,53.00
2022-09-23T10:18:47.984Z,53.07
2022-09-23T10:21:27.752Z,54.34
2022-09-23T10:27:15.911Z,55.60
2022-09-23T10:30:22.832Z,55.53
2022-09-23T10:33:15.748Z,54.99
2022-09-23T10:39:42.711Z,54.51
2022-09-23T10:42:52.016Z,52.72
2022-09-23T10:46:18.350Z,53.11
2022-09-23T10:49:27.691Z,51.66
2022-09-23T10:52:34.761Z,50.36
2022-09-23T10:55:48.764Z,49.61
2022-09-23T10:59:00.685Z,50.19
2022-09-23T11:05:50.712Z,49.65
2022-09-23T11:09:13.093Z,49.71
2022-09-23T11:15:39.823Z,49.80
2022-09-23T11:18:50.923Z,49.79
2022-09-23T11:22:04.468Z,50.40
2022-09-23T11:28:41.825Z,48.96
2022-09-23T11:35:11.274Z,49.41
2022-09-23T11:38:23.998Z,48.54
2022-09-23T11:41:38.939Z,49.09
2022-09-23T11:44:45.203Z,49.44
2022-09-23T11:53:44.764Z,49.18
2022-09-23T11:56:54.356Z,48.14
2022-09-23T12:00:38.999Z,46.94
2022-09-23T12:20:07.644Z,49.09
2022-09-23T12:22:05.799Z,47.82
2022-09-23T12:24:15.908Z,47.30
2022-09-23T12:27:31.791Z,44.70
2022-09-23T12:38:09.021Z,41.68
2022-09-23T12:41:47.153Z,39.84
2022-09-23T12:58:59.332Z,42.70
2022-09-23T13:05:31.261Z,43.52
2022-09-23T13:14:57.938Z,45.42
2022-09-23T13:18:26.033Z,45.25
2022-09-23T13:21:40.080Z,44.84
2022-09-23T13:30:52.787Z,44.95
2022-09-23T13:33:32.077Z,44.96
2022-09-23T13:36:04.001Z,44.79
2022-09-23T13:38:34.888Z,45.04
2022-09-23T13:41:10.392Z,45.21
2022-09-23T13:43:42.709Z,45.67
2022-09-23T13:46:15.831Z,43.48
2022-09-23T13:48:57.470Z,40.01
2022-09-23T13:51:36.418Z,38.48
2022-09-23T13:57:37.746Z,36.11
2022-09-23T14:00:22.778Z,35.87
2022-09-23T14:02:54.771Z,36.85
2022-09-23T14:04:17.630Z,37.92
2022-09-23T14:05:26.742Z,37.67
2022-09-23T14:08:03.354Z,38.56
2022-09-23T14:10:35.757Z,38.63
2022-09-23T14:13:04.841Z,39.13
2022-09-23T14:16:04.732Z,39.47
2022-09-23T14:19:18.818Z,40.41
2022-09-23T14:22:23.597Z,41.84
2022-09-23T14:24:56.385Z,42.33
2022-09-23T14:27:36.505Z,43.22
2022-09-23T14:30:22.186Z,43.62
2022-09-23T14:33:00.363Z,44.28
2022-09-23T14:35:39.845Z,44.39
2022-09-23T14:38:26.715Z,43.82
2022-09-23T14:41:16.797Z,42.59
2022-09-23T14:43:59.186Z,40.44
2022-09-23T14:46:32.505Z,39.54
2022-09-23T14:49:05.206Z,39.01
2022-09-23T14:51:40.769Z,39.90
2022-09-23T14:54:22.577Z,40.41
2022-09-23T14:56:49.743Z,41.31
2022-09-23T14:59:35.057Z,42.10
2022-09-23T15:02:22.078Z,43.43
2022-09-23T15:04:48.773Z,44.81
2022-09-23T15:07:20.056Z,45.40
2022-09-23T15:09:46.619Z,46.86
2022-09-23T15:12:18.161Z,48.40
2022-09-23T15:14:50.716Z,51.03
2022-09-23T15:17:33.879Z,53.02
2022-09-23T15:20:05.876Z,53.51
2022-09-23T15:22:42.870Z,54.00
2022-09-23T15:25:24.206Z,56.22
2022-09-23T15:28:17.965Z,56.67
2022-09-23T15:30:45.106Z,57.36
2022-09-23T15:33:14.536Z,58.45
2022-09-23T15:35:45.858Z,59.88
2022-09-23T15:38:13.013Z,59.81
2022-09-23T15:40:40.632Z,59.96
2022-09-23T15:43:22.691Z,61.29
2022-09-23T15:45:52.569Z,61.75
2022-09-23T15:48:24.450Z,61.26
2022-09-23T15:50:51.828Z,61.31
2022-09-23T15:53:23.259Z,60.37
2022-09-23T15:55:50.941Z,60.36
2022-09-23T15:58:19.955Z,59.20
2022-09-23T16:00:56.059Z,57.65
2022-09-23T16:03:27.692Z,56.50
2022-09-23T16:06:00.413Z,55.89
2022-09-23T16:08:28.384Z,55.84
2022-09-23T16:10:55.454Z,56.71
2022-09-23T16:13:22.346Z,57.93
2022-09-23T16:15:49.322Z,57.55
2022-09-23T16:18:15.865Z,57.81
2022-09-23T16:20:45.133Z,58.18
2022-09-23T16:23:33.323Z,58.26
2022-09-23T16:26:04.242Z,58.47
2022-09-23T16:28:31.104Z,58.73
2022-09-23T16:30:57.662Z,59.06
2022-09-23T16:33:24.272Z,59.03
2022-09-23T16:35:51.619Z,58.53
2022-09-23T16:38:19.101Z,58.83
2022-09-23T16:40:47.289Z,58.72
2022-09-23T16:43:14.093Z,59.01
2022-09-23T16:45:40.884Z,59.19
2022-09-23T16:48:08.059Z,59.71
2022-09-23T16:50:34.782Z,60.20
2022-09-23T16:53:01.644Z,60.34
2022-09-23T16:55:28.441Z,60.37
2022-09-23T16:57:55.349Z,60.57
2022-09-23T17:00:35.712Z,60.19
2022-09-23T17:03:15.636Z,60.83
2022-09-23T17:05:46.607Z,60.97
2022-09-23T17:08:16.835Z,61.24
2022-09-23T17:10:45.252Z,61.38
2022-09-23T17:13:16.665Z,61.24
2022-09-23T17:15:43.435Z,61.63
2022-09-23T17:18:10.068Z,61.70
2022-09-23T17:20:38.048Z,62.06
2022-09-23T17:23:05.065Z,62.08
2022-09-23T17:25:33.780Z,62.53
2022-09-23T17:28:01.728Z,62.59
2022-09-23T17:30:28.270Z,62.52
2022-09-23T17:32:54.914Z,62.95
2022-09-23T17:35:21.486Z,63.31
2022-09-23T17:37:48.082Z,62.95
2022-09-23T17:40:14.910Z,62.84
2022-09-23T17:42:41.879Z,62.71
2022-09-23T17:45:11.875Z,62.86
2022-09-23T17:47:41.733Z,63.00
2022-09-23T17:50:08.936Z,63.61
2022-09-23T17:52:35.565Z,63.13
2022-09-23T17:55:02.124Z,63.62
2022-09-23T17:57:28.690Z,63.30
2022-09-23T17:59:55.613Z,63.34
2022-09-23T18:02:22.407Z,63.44
2022-09-23T18:04:49.179Z,64.08
2022-09-23T18:07:16.279Z,64.70
2022-09-23T18:09:42.858Z,64.44
2022-09-23T18:12:09.456Z,64.58
2022-09-23T18:14:35.942Z,64.57
2022-09-23T18:17:02.469Z,64.14
2022-09-23T18:19:29.018Z,64.33
2022-09-23T18:21:56.575Z,64.27
2022-09-23T18:24:32.683Z,64.81
2022-09-23T18:27:00.564Z,64.80
2022-09-23T18:29:27.456Z,64.86
2022-09-23T18:31:54.401Z,65.03
2022-09-23T18:34:21.360Z,65.14
2022-09-23T18:36:48.002Z,65.73
2022-09-23T18:39:14.692Z,65.51
2022-09-23T18:41:41.615Z,65.84
2022-09-23T18:44:09.659Z,65.89
2022-09-23T18:46:36.788Z,66.01
2022-09-23T18:49:22.192Z,66.03
2022-09-23T18:51:53.187Z,66.26
2022-09-23T18:54:20.883Z,66.58
2022-09-23T18:56:48.742Z,66.57
2022-09-23T18:59:18.953Z,67.00
2022-09-23T19:01:49.319Z,67.06
2022-09-23T19:04:18.831Z,66.88
2022-09-23T19:06:45.730Z,66.90
2022-09-23T19:09:14.406Z,67.06
2022-09-23T19:11:41.105Z,66.79
2022-09-23T19:14:11.347Z,67.00
2022-09-23T19:16:40.241Z,67.31
2022-09-23T19:19:07.534Z,67.64
2022-09-23T19:21:34.732Z,67.42
2022-09-23T19:24:04.107Z,67.50
2022-09-23T19:26:34.315Z,67.99
2022-09-23T19:29:02.485Z,68.08
2022-09-23T19:31:37.868Z,68.00
2022-09-23T19:34:09.912Z,68.15
2022-09-23T19:37:09.850Z,68.15
2022-09-23T19:40:36.826Z,68.04
2022-09-23T19:43:41.747Z,68.03
2022-09-23T19:46:57.110Z,68.12
2022-09-23T19:50:04.825Z,68.19
2022-09-23T19:53:28.905Z,68.05
2022-09-23T19:56:41.009Z,68.02
2022-09-23T19:59:55.728Z,68.08
2022-09-23T20:03:13.794Z,68.37
2022-09-23T20:06:27.825Z,68.12
2022-09-23T20:09:42.831Z,68.43
2022-09-23T20:13:37.559Z,68.31
2022-09-23T20:17:24.737Z,68.19
2022-09-23T20:20:15.353Z,68.31
2022-09-23T20:23:08.749Z,68.04
2022-09-23T20:26:23.907Z,68.25
2022-09-23T20:29:31.802Z,68.25
2022-09-23T20:32:56.728Z,68.36
2022-09-23T20:36:26.723Z,68.53
2022-09-23T20:39:43.778Z,68.54
2022-09-23T20:42:47.203Z,68.62
2022-09-23T20:45:39.804Z,68.76
2022-09-23T20:52:48.034Z,68.90
2022-09-23T20:56:40.997Z,69.05
2022-09-23T21:00:06.117Z,69.30
2022-09-23T21:03:32.146Z,68.99
2022-09-23T21:07:11.789Z,70.55
2022-09-23T21:10:55.877Z,69.97
2022-09-23T21:14:11.723Z,69.73
2022-09-23T21:17:39.086Z,69.90
2022-09-23T21:21:10.755Z,69.95
2022-09-23T21:28:50.037Z,70.22
2022-09-23T21:32:08.816Z,70.51
2022-09-23T21:35:35.758Z,70.40
2022-09-23T21:38:42.618Z,70.51
2022-09-23T21:42:10.050Z,70.14
2022-09-23T21:45:57.052Z,70.49
2022-09-23T21:49:05.764Z,70.19
2022-09-23T21:52:19.746Z,70.07
2022-09-23T21:55:41.746Z,70.14
2022-09-23T21:58:48.080Z,69.90
2022-09-23T22:02:35.471Z,70.01
2022-09-23T22:06:07.761Z,70.00
2022-09-23T22:09:26.743Z,70.13
2022-09-23T22:16:16.925Z,70.49
2022-09-23T22:19:45.752Z,70.83
2022-09-23T22:23:06.727Z,70.73
2022-09-23T22:26:05.849Z,71.00
2022-09-23T22:29:44.861Z,71.30
2022-09-23T22:33:29.022Z,71.42
2022-09-23T22:36:45.853Z,71.48
2022-09-23T22:40:03.162Z,71.66
2022-09-23T22:43:18.786Z,71.61
2022-09-23T22:46:44.157Z,71.97
2022-09-23T22:49:50.051Z,71.85
2022-09-23T22:53:03.755Z,71.83
2022-09-23T22:56:10.698Z,72.09
2022-09-23T22:59:26.820Z,72.42
2022-09-23T23:02:31.711Z,72.64
2022-09-23T23:05:50.798Z,72.74
2022-09-23T23:09:06.788Z,72.67
2022-09-23T23:12:04.828Z,73.24
2022-09-23T23:15:32.777Z,73.15
2022-09-23T23:18:39.777Z,73.09
2022-09-23T23:21:54.782Z,73.37
2022-09-23T23:25:13.778Z,73.36
2022-09-23T23:28:21.700Z,73.27
2022-09-23T23:31:31.865Z,73.21
2022-09-23T23:34:41.756Z,73.12
2022-09-23T23:37:56.819Z,72.98
2022-09-23T23:41:02.864Z,72.90
2022-09-23T23:44:23.180Z,73.16
2022-09-23T23:48:05.744Z,72.90
2022-09-23T23:51:12.861Z,72.84
2022-09-23T23:54:34.813Z,72.86
2022-09-23T23:57:42.764Z,73.01
